Time;durP1;ratioP1;P1;durP2;ratioP2;P2;SDS_P1;SDS_P2;PMS_P1;PMS_P2;Temp;Humidity;BMP_temperature;BMP_pressure;BME280_temperature;BME280_humidity;BME280_pressure;Samples;Min_cycle;Max_cycle;Signal;HPM_P1;HPM_P2
2023/10/16 00:01:26;;;;;;;1.00;1.00;;;;;;;;;;5088883;28;20699;-67
2023/10/16 00:03:55;;;;;;;2.07;1.00;;;;;;;;;;5088406;28;20729;-66
2023/10/16 00:06:23;;;;;;;1.13;1.10;;;;;;;;;;5088077;28;20206;-65
2023/10/16 00:08:53;;;;;;;1.17;1.03;;;;;;;;;;5089021;28;20944;-65
2023/10/16 00:11:23;;;;;;;1.60;0.90;;;;;;;;;;5088445;28;20230;-65
2023/10/16 00:13:50;;;;;;;1.20;1.10;;;;;;;;;;5088728;28;20216;-65
2023/10/16 00:16:18;;;;;;;1.03;1.00;;;;;;;;;;5088491;28;20258;-65
2023/10/16 00:18:46;;;;;;;0.90;0.90;;;;;;;;;;5088247;28;20202;-66
2023/10/16 00:21:15;;;;;;;3.10;1.00;;;;;;;;;;5088147;28;20228;-67
2023/10/16 00:23:42;;;;;;;1.17;1.10;;;;;;;;;;5088658;28;20195;-66
2023/10/16 00:26:12;;;;;;;1.57;1.47;;;;;;;;;;5088488;28;20315;-66
2023/10/16 00:28:44;;;;;;;1.20;1.20;;;;;;;;;;5088087;28;20217;-66
2023/10/16 00:31:12;;;;;;;1.00;1.00;;;;;;;;;;5086788;28;20275;-66
2023/10/16 00:33:40;;;;;;;1.13;1.07;;;;;;;;;;5080920;28;20198;-66
2023/10/16 00:36:07;;;;;;;1.10;1.10;;;;;;;;;;5084952;28;20214;-66
2023/10/16 00:38:37;;;;;;;1.33;1.33;;;;;;;;;;5083761;28;20735;-66
2023/10/16 00:41:16;;;;;;;2.00;1.50;;;;;;;;;;5086652;28;20258;-66
2023/10/16 00:43:43;;;;;;;3.40;1.50;;;;;;;;;;5088621;28;20225;-66
2023/10/16 00:46:11;;;;;;;0.97;0.97;;;;;;;;;;5086608;28;20214;-66
2023/10/16 00:48:39;;;;;;;2.97;1.30;;;;;;;;;;5088345;28;20216;-66
2023/10/16 00:51:08;;;;;;;1.00;1.00;;;;;;;;;;5087343;28;20573;-66
2023/10/16 00:53:37;;;;;;;4.00;1.07;;;;;;;;;;5087995;28;20301;-66
2023/10/16 00:56:08;;;;;;;3.10;1.50;;;;;;;;;;5087780;28;20221;-67
2023/10/16 00:58:35;;;;;;;1.20;1.20;;;;;;;;;;5087559;28;20259;-66
2023/10/16 01:01:04;;;;;;;1.80;1.27;;;;;;;;;;5087608;28;20225;-67
2023/10/16 01:03:34;;;;;;;1.27;1.10;;;;;;;;;;5087177;28;20262;-66
2023/10/16 01:06:02;;;;;;;3.17;1.70;;;;;;;;;;5084692;28;20225;-67
2023/10/16 01:08:29;;;;;;;1.77;1.30;;;;;;;;;;5087755;28;20220;-66
2023/10/16 01:10:58;;;;;;;2.73;1.23;;;;;;;;;;5087464;28;20199;-66
2023/10/16 01:13:28;;;;;;;1.27;1.00;;;;;;;;;;5087583;28;20211;-66
2023/10/16 01:15:56;;;;;;;1.30;1.20;;;;;;;;;;5087443;28;20669;-66
2023/10/16 01:18:23;;;;;;;1.87;1.77;;;;;;;;;;5087081;28;20200;-67
2023/10/16 01:20:53;;;;;;;1.60;1.50;;;;;;;;;;5087640;28;20293;-67
2023/10/16 01:23:22;;;;;;;1.07;1.07;;;;;;;;;;5087460;28;20202;-66
2023/10/16 01:25:49;;;;;;;1.20;1.20;;;;;;;;;;5087657;28;20211;-66
2023/10/16 01:28:17;;;;;;;1.30;1.30;;;;;;;;;;5075104;28;20209;-65
2023/10/16 01:30:45;;;;;;;1.37;1.27;;;;;;;;;;5087603;28;20209;-66
2023/10/16 01:33:12;;;;;;;1.87;1.33;;;;;;;;;;5087455;28;20299;-66
2023/10/16 01:35:39;;;;;;;1.10;1.10;;;;;;;;;;5087275;28;20205;-65
2023/10/16 01:38:16;;;;;;;1.20;1.20;;;;;;;;;;5087225;28;20883;-65
2023/10/16 01:41:02;;;;;;;1.23;1.20;;;;;;;;;;5087276;28;20311;-65
2023/10/16 01:43:29;;;;;;;1.20;1.20;;;;;;;;;;5087000;28;20254;-65
2023/10/16 01:45:58;;;;;;;1.47;1.10;;;;;;;;;;5087215;28;20271;-65
2023/10/16 01:48:27;;;;;;;1.27;1.27;;;;;;;;;;5086960;28;20318;-65
2023/10/16 01:50:55;;;;;;;1.63;1.30;;;;;;;;;;5087388;28;20203;-65
2023/10/16 01:53:25;;;;;;;1.77;1.23;;;;;;;;;;5086955;28;20650;-66
2023/10/16 01:55:54;;;;;;;1.87;1.20;;;;;;;;;;5087135;28;20279;-65
2023/10/16 01:58:22;;;;;;;1.20;1.20;;;;;;;;;;5086836;28;20222;-66
2023/10/16 02:00:49;;;;;;;1.90;1.17;;;;;;;;;;5087409;28;20272;-65
2023/10/16 02:03:17;;;;;;;1.43;1.40;;;;;;;;;;5090503;28;20203;-65
2023/10/16 02:05:45;;;;;;;1.20;1.20;;;;;;;;;;5091006;28;20210;-65
2023/10/16 02:08:13;;;;;;;2.17;1.30;;;;;;;;;;5088981;28;20260;-65
2023/10/16 02:10:40;;;;;;;1.70;1.27;;;;;;;;;;5091094;28;20289;-66
2023/10/16 02:13:09;;;;;;;1.10;1.10;;;;;;;;;;5090620;28;20198;-66
2023/10/16 02:15:37;;;;;;;1.13;1.10;;;;;;;;;;5090596;28;20331;-65
2023/10/16 02:18:05;;;;;;;1.20;1.10;;;;;;;;;;5090688;28;20204;-65
2023/10/16 02:20:36;;;;;;;0.93;0.93;;;;;;;;;;5089655;28;20304;-66
2023/10/16 02:23:03;;;;;;;0.97;0.97;;;;;;;;;;5075912;28;20190;-66
2023/10/16 02:25:30;;;;;;;3.20;1.10;;;;;;;;;;5090260;28;20293;-66
2023/10/16 02:27:58;;;;;;;0.90;0.90;;;;;;;;;;5090514;28;20214;-65
2023/10/16 02:30:35;;;;;;;0.90;0.90;;;;;;;;;;5088484;28;20214;-65
2023/10/16 02:33:12;;;;;;;1.10;1.10;;;;;;;;;;5090036;28;20202;-65
2023/10/16 02:35:42;;;;;;;1.00;1.00;;;;;;;;;;5074947;28;20201;-65
2023/10/16 02:38:11;;;;;;;0.77;0.77;;;;;;;;;;5089463;28;20202;-65
2023/10/16 02:40:39;;;;;;;2.07;0.97;;;;;;;;;;5089745;28;20234;-65
2023/10/16 02:43:13;;;;;;;1.03;1.03;;;;;;;;;;5089826;28;20226;-65
2023/10/16 02:45:46;;;;;;;1.80;1.27;;;;;;;;;;5089213;28;20209;-65
2023/10/16 02:48:16;;;;;;;1.00;1.00;;;;;;;;;;5089493;28;21937;-65
2023/10/16 02:50:44;;;;;;;1.03;1.03;;;;;;;;;;5089303;28;20217;-65
2023/10/16 02:53:11;;;;;;;1.43;1.00;;;;;;;;;;5089567;28;20202;-65
2023/10/16 02:55:40;;;;;;;1.20;1.10;;;;;;;;;;5089439;28;20198;-66
2023/10/16 02:58:11;;;;;;;0.90;0.90;;;;;;;;;;5089237;28;20423;-65
2023/10/16 03:00:38;;;;;;;1.43;1.43;;;;;;;;;;5089659;28;20641;-65
2023/10/16 03:03:07;;;;;;;1.23;0.90;;;;;;;;;;5089392;28;20275;-65
2023/10/16 03:05:34;;;;;;;2.90;1.27;;;;;;;;;;5089639;28;20202;-64
2023/10/16 03:08:02;;;;;;;0.93;0.93;;;;;;;;;;5089340;28;20209;-65
2023/10/16 03:10:30;;;;;;;0.90;0.90;;;;;;;;;;5088888;28;20201;-65
2023/10/16 03:13:05;;;;;;;1.30;1.20;;;;;;;;;;5089264;28;20252;-65
2023/10/16 03:15:34;;;;;;;1.10;1.10;;;;;;;;;;5089024;28;20251;-65
2023/10/16 03:18:02;;;;;;;0.97;0.97;;;;;;;;;;5088519;28;20289;-65
2023/10/16 03:20:35;;;;;;;1.53;1.27;;;;;;;;;;5089303;28;20211;-66
2023/10/16 03:23:06;;;;;;;1.30;1.30;;;;;;;;;;5079027;28;20222;-65
2023/10/16 03:28:14;;;;;;;2.00;1.10;;;;;;;;;;5080312;28;20211;-64
2023/10/16 03:30:42;;;;;;;1.27;1.03;;;;;;;;;;5086306;28;20310;-64
2023/10/16 03:33:13;;;;;;;0.90;0.90;;;;;;;;;;5079631;28;20214;-65
2023/10/16 03:35:45;;;;;;;0.90;0.90;;;;;;;;;;5086786;28;20217;-66
2023/10/16 03:38:12;;;;;;;1.43;1.00;;;;;;;;;;5089037;28;20240;-65
2023/10/16 03:40:41;;;;;;;0.80;0.80;;;;;;;;;;5089612;28;20214;-65
2023/10/16 03:43:08;;;;;;;0.87;0.87;;;;;;;;;;5089174;28;20232;-65
2023/10/16 03:45:40;;;;;;;1.20;1.07;;;;;;;;;;5089211;28;20210;-65
2023/10/16 03:48:09;;;;;;;4.63;1.10;;;;;;;;;;5089261;28;20278;-64
2023/10/16 03:50:38;;;;;;;0.87;0.87;;;;;;;;;;5087755;28;20221;-64
2023/10/16 03:53:08;;;;;;;2.30;1.07;;;;;;;;;;5089176;28;20329;-64
2023/10/16 03:55:41;;;;;;;0.73;0.73;;;;;;;;;;5088194;28;20214;-65
2023/10/16 03:58:08;;;;;;;1.30;0.97;;;;;;;;;;5089126;28;20214;-65
2023/10/16 04:00:46;;;;;;;2.93;1.00;;;;;;;;;;5088823;28;20263;-64
2023/10/16 04:03:17;;;;;;;1.10;1.00;;;;;;;;;;5088792;28;20736;-65
2023/10/16 04:05:46;;;;;;;3.77;1.20;;;;;;;;;;5088519;28;20560;-64
2023/10/16 04:08:15;;;;;;;1.70;1.50;;;;;;;;;;5088184;28;20237;-65
2023/10/16 04:10:46;;;;;;;3.50;1.30;;;;;;;;;;5088518;28;20206;-65
2023/10/16 04:13:14;;;;;;;1.70;1.60;;;;;;;;;;5088570;28;20275;-65
2023/10/16 04:18:30;;;;;;;1.70;1.63;;;;;;;;;;5085877;28;20230;-65
2023/10/16 04:21:17;;;;;;;1.63;1.53;;;;;;;;;;5076083;28;20290;-65
2023/10/16 04:23:55;;;;;;;1.17;1.17;;;;;;;;;;5088713;28;20238;-64
2023/10/16 04:26:47;;;;;;;1.00;1.00;;;;;;;;;;5088607;28;20217;-65
2023/10/16 04:29:25;;;;;;;0.90;0.90;;;;;;;;;;5088124;28;20198;-64
2023/10/16 04:34:34;;;;;;;1.00;1.00;;;;;;;;;;5088157;28;20194;-65
2023/10/16 04:43:07;;;;;;;0.90;0.90;;;;;;;;;;5087989;28;20248;-64
2023/10/16 04:45:39;;;;;;;0.97;0.97;;;;;;;;;;5087462;28;20299;-67
2023/10/16 04:51:09;;;;;;;1.60;1.17;;;;;;;;;;5087136;28;20202;-65
2023/10/16 04:53:58;;;;;;;1.47;1.40;;;;;;;;;;5070076;28;20206;-65
2023/10/16 04:56:57;;;;;;;1.13;1.10;;;;;;;;;;5088097;28;20204;-65
2023/10/16 05:02:16;;;;;;;1.30;1.30;;;;;;;;;;5076210;28;20244;-67
2023/10/16 05:08:02;;;;;;;2.20;1.20;;;;;;;;;;5080449;28;20252;-65
2023/10/16 05:13:39;;;;;;;0.97;0.97;;;;;;;;;;5078310;28;20332;-68
2023/10/16 05:19:02;;;;;;;1.10;1.10;;;;;;;;;;5085096;28;20207;-67
2023/10/16 06:16:28;;;;;;;7.53;3.27;;;;;;;;;;5090730;28;20314;-66
2023/10/16 06:18:59;;;;;;;4.27;2.63;;;;;;;;;;5090757;28;20204;-66
2023/10/16 06:21:26;;;;;;;2.57;2.40;;;;;;;;;;5090494;28;20217;-66
2023/10/16 06:23:53;;;;;;;2.80;2.60;;;;;;;;;;5090688;28;20217;-66
2023/10/16 06:26:26;;;;;;;3.70;2.60;;;;;;;;;;5090221;28;20208;-66
2023/10/16 06:28:54;;;;;;;5.30;3.17;;;;;;;;;;5070742;28;20241;-66
2023/10/16 06:31:24;;;;;;;3.20;2.67;;;;;;;;;;5070580;28;20219;-66
2023/10/16 06:33:56;;;;;;;4.57;2.77;;;;;;;;;;5083562;28;20202;-67
2023/10/16 06:36:25;;;;;;;3.33;2.97;;;;;;;;;;5090042;28;20231;-67
2023/10/16 06:38:52;;;;;;;4.73;2.63;;;;;;;;;;5090290;28;20676;-66
2023/10/16 06:41:20;;;;;;;2.80;2.60;;;;;;;;;;5090111;28;20209;-66
2023/10/16 06:43:48;;;;;;;3.17;1.93;;;;;;;;;;5085393;28;20233;-67
2023/10/16 06:46:21;;;;;;;1.90;1.80;;;;;;;;;;5089688;28;20403;-67
2023/10/16 06:48:49;;;;;;;2.60;2.40;;;;;;;;;;5090171;28;20207;-67
2023/10/16 06:51:16;;;;;;;2.00;1.80;;;;;;;;;;5090337;28;20214;-66
2023/10/16 06:53:45;;;;;;;4.00;2.20;;;;;;;;;;5090356;28;20207;-66
2023/10/16 06:56:27;;;;;;;2.87;2.47;;;;;;;;;;5090355;28;20206;-66
2023/10/16 06:58:55;;;;;;;3.47;2.27;;;;;;;;;;5090520;28;20217;-66
2023/10/16 07:01:25;;;;;;;2.97;2.70;;;;;;;;;;5089895;28;20222;-66
2023/10/16 07:03:54;;;;;;;2.40;2.20;;;;;;;;;;5090158;28;20591;-66
2023/10/16 07:06:24;;;;;;;2.60;2.27;;;;;;;;;;5089732;28;20225;-66
2023/10/16 07:08:52;;;;;;;7.07;2.87;;;;;;;;;;5090090;28;20217;-66
2023/10/16 07:11:21;;;;;;;3.73;2.33;;;;;;;;;;5090047;28;20206;-67
2023/10/16 07:13:48;;;;;;;2.53;2.33;;;;;;;;;;5090017;28;20209;-66
2023/10/16 07:16:16;;;;;;;5.33;2.87;;;;;;;;;;5089661;28;20246;-66
2023/10/16 07:18:43;;;;;;;4.37;2.93;;;;;;;;;;5089730;28;20284;-68
2023/10/16 07:21:17;;;;;;;3.83;2.67;;;;;;;;;;5089631;28;20214;-66
2023/10/16 07:23:45;;;;;;;5.93;4.00;;;;;;;;;;5089812;28;20233;-67
2023/10/16 07:26:16;;;;;;;6.73;3.87;;;;;;;;;;5089447;28;20249;-67
2023/10/16 07:28:48;;;;;;;6.50;3.70;;;;;;;;;;5089797;28;20212;-66
2023/10/16 07:31:16;;;;;;;6.60;4.80;;;;;;;;;;5089822;28;20720;-67
2023/10/16 07:33:43;;;;;;;9.67;4.60;;;;;;;;;;5089687;28;20307;-66
2023/10/16 07:36:12;;;;;;;10.53;5.03;;;;;;;;;;5088575;28;20318;-66
2023/10/16 07:38:39;;;;;;;10.37;4.80;;;;;;;;;;5089272;28;20211;-66
2023/10/16 07:41:09;;;;;;;5.70;4.27;;;;;;;;;;5088404;28;20203;-67
2023/10/16 07:43:37;;;;;;;11.40;5.70;;;;;;;;;;5089067;28;20238;-67
2023/10/16 07:46:19;;;;;;;11.10;7.07;;;;;;;;;;5089010;28;20558;-67
2023/10/16 07:48:50;;;;;;;6.10;4.50;;;;;;;;;;5088837;28;20738;-66
2023/10/16 07:51:19;;;;;;;8.20;5.43;;;;;;;;;;5088705;28;20210;-67
2023/10/16 07:53:48;;;;;;;10.00;5.50;;;;;;;;;;5089099;28;20728;-67
2023/10/16 07:56:25;;;;;;;11.27;5.33;;;;;;;;;;5087925;28;20204;-67
2023/10/16 07:58:56;;;;;;;7.90;5.53;;;;;;;;;;5088968;28;20294;-67
2023/10/16 08:04:06;;;;;;;10.37;5.40;;;;;;;;;;5086844;28;20238;-67
2023/10/16 08:06:37;;;;;;;8.77;5.57;;;;;;;;;;5084879;28;20618;-69
2023/10/16 08:11:56;;;;;;;5.67;4.10;;;;;;;;;;5087720;28;20276;-67
2023/10/16 08:14:25;;;;;;;9.83;6.00;;;;;;;;;;5084735;28;20549;-68
2023/10/16 08:16:58;;;;;;;9.17;5.57;;;;;;;;;;5085334;28;20324;-66
2023/10/16 08:19:25;;;;;;;8.80;6.13;;;;;;;;;;5087757;28;20203;-69
2023/10/16 08:21:54;;;;;;;7.43;5.77;;;;;;;;;;5087816;28;20229;-69
2023/10/16 08:24:24;;;;;;;7.27;4.70;;;;;;;;;;5087580;28;20733;-68
2023/10/16 08:26:50;;;;;;;9.17;6.27;;;;;;;;;;5081176;28;20209;-67
2023/10/16 08:29:21;;;;;;;7.60;5.87;;;;;;;;;;5068108;28;20703;-66
2023/10/16 08:32:27;;;;;;;10.50;5.90;;;;;;;;;;5078973;28;20207;-67
2023/10/16 08:34:40;;;;;;;10.20;5.87;;;;;;;;;;5087213;28;20321;-67
2023/10/16 08:37:11;;;;;;;7.67;4.77;;;;;;;;;;5087414;28;20283;-71
2023/10/16 08:39:44;;;;;;;8.27;5.47;;;;;;;;;;5084453;28;20202;-67
2023/10/16 08:42:18;;;;;;;15.17;6.53;;;;;;;;;;5088257;28;20250;-66
2023/10/16 08:44:46;;;;;;;7.90;6.27;;;;;;;;;;5087842;28;20206;-66
2023/10/16 08:47:20;;;;;;;8.73;6.10;;;;;;;;;;5088086;28;20213;-66
2023/10/16 08:49:52;;;;;;;8.50;6.33;;;;;;;;;;5087937;28;20206;-65
2023/10/16 08:52:22;;;;;;;9.27;6.47;;;;;;;;;;5087760;28;20744;-67
2023/10/16 08:55:14;;;;;;;10.23;5.80;;;;;;;;;;5087993;28;20209;-60
2023/10/16 08:57:41;;;;;;;13.03;6.73;;;;;;;;;;5074792;28;20290;-65
2023/10/16 09:00:19;;;;;;;10.70;6.30;;;;;;;;;;5087796;28;20209;-70
2023/10/16 09:02:48;;;;;;;11.83;6.60;;;;;;;;;;5085510;28;20308;-68
2023/10/16 09:05:16;;;;;;;10.40;6.60;;;;;;;;;;5077300;28;20745;-68
2023/10/16 09:07:43;;;;;;;6.90;6.00;;;;;;;;;;5077731;28;20664;-66
2023/10/16 09:10:10;;;;;;;7.73;6.20;;;;;;;;;;5077458;28;20695;-66
2023/10/16 09:12:44;;;;;;;11.60;7.40;;;;;;;;;;5083851;28;20198;-67
2023/10/16 09:15:14;;;;;;;8.17;6.30;;;;;;;;;;5085427;28;20202;-67
2023/10/16 09:17:43;;;;;;;8.73;6.00;;;;;;;;;;5085013;28;20722;-69
2023/10/16 09:20:13;;;;;;;9.77;6.93;;;;;;;;;;5085020;28;20682;-67
2023/10/16 09:22:45;;;;;;;11.53;6.47;;;;;;;;;;5085203;28;20246;-67
2023/10/16 09:25:15;;;;;;;13.93;6.30;;;;;;;;;;5085370;28;20205;-66
2023/10/16 09:27:42;;;;;;;6.93;5.77;;;;;;;;;;5085233;28;20747;-67
2023/10/16 09:30:15;;;;;;;7.67;6.10;;;;;;;;;;5085367;28;20214;-67
2023/10/16 09:32:42;;;;;;;11.03;6.13;;;;;;;;;;5064949;28;20268;-66
2023/10/16 09:35:12;;;;;;;8.77;6.00;;;;;;;;;;5065139;28;20215;-67
2023/10/16 09:37:40;;;;;;;5.30;4.80;;;;;;;;;;5079985;28;20305;-67
2023/10/16 09:40:19;;;;;;;8.57;4.87;;;;;;;;;;5070350;28;20700;-67
2023/10/16 09:42:55;;;;;;;11.40;6.97;;;;;;;;;;5085153;28;20238;-67
2023/10/16 09:45:23;;;;;;;9.40;6.27;;;;;;;;;;5085004;28;20755;-66
2023/10/16 09:47:51;;;;;;;9.67;6.20;;;;;;;;;;5084558;28;20306;-69
2023/10/16 09:50:19;;;;;;;8.87;5.30;;;;;;;;;;5084535;28;20210;-69
2023/10/16 09:52:48;;;;;;;6.80;6.17;;;;;;;;;;5084790;28;20226;-67
2023/10/16 09:55:18;;;;;;;8.03;6.20;;;;;;;;;;5085111;28;20297;-67
2023/10/16 09:57:49;;;;;;;8.43;6.43;;;;;;;;;;5084824;28;20236;-67
2023/10/16 10:00:28;;;;;;;9.40;6.00;;;;;;;;;;5079362;28;20699;-67
2023/10/16 10:02:56;;;;;;;11.33;6.30;;;;;;;;;;5084204;28;20283;-68
2023/10/16 10:05:31;;;;;;;9.27;6.50;;;;;;;;;;5086287;28;20203;-68
2023/10/16 10:08:01;;;;;;;9.67;5.23;;;;;;;;;;5086689;28;20194;-68
2023/10/16 10:13:15;;;;;;;7.30;5.40;;;;;;;;;;5080408;28;20287;-67
2023/10/16 10:15:45;;;;;;;9.23;6.00;;;;;;;;;;5077620;28;20712;-70
2023/10/16 10:20:59;;;;;;;6.20;5.33;;;;;;;;;;5083427;28;20587;-67
2023/10/16 10:23:28;;;;;;;12.17;6.10;;;;;;;;;;5084950;28;20647;-67
2023/10/16 10:25:55;;;;;;;9.10;6.00;;;;;;;;;;5089950;28;20202;-70
2023/10/16 10:28:25;;;;;;;9.23;6.23;;;;;;;;;;5090673;28;20221;-71
2023/10/16 10:30:52;;;;;;;7.73;5.70;;;;;;;;;;5090861;28;20218;-69
2023/10/16 10:33:36;;;;;;;7.13;5.10;;;;;;;;;;5090918;28;20210;-70
2023/10/16 10:36:22;;;;;;;9.47;5.10;;;;;;;;;;5090392;28;20643;-70
2023/10/16 10:38:53;;;;;;;6.77;4.73;;;;;;;;;;5090540;28;20229;-72
2023/10/16 10:41:20;;;;;;;5.40;4.90;;;;;;;;;;5090764;28;20209;-78
2023/10/16 10:43:48;;;;;;;8.53;5.17;;;;;;;;;;5090510;28;20230;-73
2023/10/16 10:46:25;;;;;;;6.00;4.30;;;;;;;;;;5080102;28;20402;-69
2023/10/16 10:48:54;;;;;;;3.80;3.50;;;;;;;;;;5073837;28;20210;-69
2023/10/16 10:51:21;;;;;;;4.40;3.47;;;;;;;;;;5089218;28;20202;-69
2023/10/16 10:53:57;;;;;;;3.70;3.40;;;;;;;;;;5082781;28;20205;-68
2023/10/16 10:56:30;;;;;;;8.33;4.27;;;;;;;;;;5089880;28;20206;-65
2023/10/16 10:58:57;;;;;;;4.57;2.97;;;;;;;;;;5089516;28;20273;-68
2023/10/16 11:01:34;;;;;;;5.73;2.20;;;;;;;;;;5089112;28;20230;-68
2023/10/16 11:04:09;;;;;;;5.90;2.27;;;;;;;;;;5089849;28;20265;-69
2023/10/16 11:06:42;;;;;;;4.07;2.73;;;;;;;;;;5089898;28;20213;-68
2023/10/16 11:09:18;;;;;;;2.87;2.67;;;;;;;;;;5086648;28;20585;-68
2023/10/16 11:11:47;;;;;;;1.87;1.70;;;;;;;;;;5089068;28;20252;-69
2023/10/16 11:14:15;;;;;;;4.10;2.30;;;;;;;;;;5089222;28;20206;-68
2023/10/16 11:16:44;;;;;;;4.53;2.20;;;;;;;;;;5088354;28;20287;-66
2023/10/16 11:19:11;;;;;;;3.20;2.27;;;;;;;;;;5085644;28;21147;-68
2023/10/16 11:21:44;;;;;;;4.03;2.37;;;;;;;;;;5089423;28;20211;-63
2023/10/16 11:24:13;;;;;;;2.13;1.97;;;;;;;;;;5083842;28;20234;-69
2023/10/16 11:26:40;;;;;;;2.70;2.50;;;;;;;;;;5069091;28;20242;-67
2023/10/16 11:29:12;;;;;;;1.40;1.40;;;;;;;;;;5069262;28;20695;-68
2023/10/16 11:31:41;;;;;;;3.20;1.87;;;;;;;;;;5069009;28;20238;-67
2023/10/16 11:34:12;;;;;;;4.23;2.43;;;;;;;;;;5079319;28;20203;-69
2023/10/16 11:36:39;;;;;;;4.50;2.13;;;;;;;;;;5069093;28;20347;-67
2023/10/16 11:39:07;;;;;;;2.00;1.90;;;;;;;;;;5076501;28;20210;-69
2023/10/16 11:41:37;;;;;;;2.43;1.70;;;;;;;;;;5089045;28;20609;-68
2023/10/16 11:44:13;;;;;;;2.13;1.70;;;;;;;;;;5069288;28;20255;-69
2023/10/16 11:46:46;;;;;;;2.37;1.70;;;;;;;;;;5085179;28;20202;-69
2023/10/16 11:49:23;;;;;;;4.77;1.97;;;;;;;;;;5088399;28;20247;-68
2023/10/16 11:51:51;;;;;;;1.50;1.40;;;;;;;;;;5068948;28;20207;-68
2023/10/16 11:54:20;;;;;;;1.93;1.83;;;;;;;;;;5084122;28;20286;-68
2023/10/16 11:56:50;;;;;;;2.37;1.60;;;;;;;;;;5068601;28;20215;-69
2023/10/16 11:59:19;;;;;;;2.37;1.97;;;;;;;;;;5068596;28;20281;-68
2023/10/16 12:01:46;;;;;;;3.50;1.80;;;;;;;;;;5068541;28;20594;-68
2023/10/16 12:04:17;;;;;;;3.73;1.83;;;;;;;;;;5071300;28;20222;-68
2023/10/16 12:06:45;;;;;;;3.07;1.00;;;;;;;;;;5088767;28;20730;-71
2023/10/16 12:09:14;;;;;;;1.60;1.10;;;;;;;;;;5085749;28;20245;-70
2023/10/16 12:11:42;;;;;;;1.17;1.07;;;;;;;;;;5069412;28;20293;-72
2023/10/16 12:14:13;;;;;;;2.20;0.90;;;;;;;;;;5069752;28;20234;-65
2023/10/16 12:16:40;;;;;;;3.40;1.20;;;;;;;;;;5068459;28;20339;-64
2023/10/16 12:19:09;;;;;;;3.07;1.30;;;;;;;;;;5068196;28;20210;-63
2023/10/16 12:21:36;;;;;;;2.93;1.30;;;;;;;;;;5068157;28;20207;-66
2023/10/16 12:24:04;;;;;;;3.43;1.10;;;;;;;;;;5085386;28;20619;-63
2023/10/16 12:26:31;;;;;;;3.23;1.00;;;;;;;;;;5088308;28;20238;-63
2023/10/16 12:28:59;;;;;;;1.10;0.70;;;;;;;;;;5086949;28;20198;-63
2023/10/16 12:31:28;;;;;;;1.87;1.20;;;;;;;;;;5068279;28;20326;-63
2023/10/16 12:33:55;;;;;;;2.73;1.00;;;;;;;;;;5068179;28;20202;-64
2023/10/16 12:36:23;;;;;;;1.23;0.80;;;;;;;;;;5068185;28;20273;-63
2023/10/16 12:38:53;;;;;;;2.10;0.80;;;;;;;;;;5067802;28;20207;-63
2023/10/16 12:41:21;;;;;;;2.00;1.03;;;;;;;;;;5086550;28;20255;-63
2023/10/16 12:43:48;;;;;;;1.13;0.80;;;;;;;;;;5087791;28;20609;-62
2023/10/16 12:46:16;;;;;;;1.67;0.70;;;;;;;;;;5088069;28;20205;-64
2023/10/16 12:48:44;;;;;;;1.23;1.00;;;;;;;;;;5087321;28;20700;-63
2023/10/16 12:51:11;;;;;;;1.17;0.80;;;;;;;;;;5087929;28;20210;-63
2023/10/16 12:53:38;;;;;;;0.87;0.70;;;;;;;;;;5087729;28;20233;-64
2023/10/16 12:56:06;;;;;;;1.57;0.90;;;;;;;;;;5087308;28;20685;-63
2023/10/16 12:58:34;;;;;;;1.47;0.83;;;;;;;;;;5087985;28;20210;-64
2023/10/16 13:01:04;;;;;;;1.33;1.00;;;;;;;;;;5086910;28;20359;-63
2023/10/16 13:03:33;;;;;;;2.20;0.70;;;;;;;;;;5084164;28;20202;-63
2023/10/16 13:06:05;;;;;;;1.20;1.10;;;;;;;;;;5080279;28;20198;-65
2023/10/16 13:08:32;;;;;;;0.60;0.60;;;;;;;;;;5087842;28;20210;-65
2023/10/16 13:10:59;;;;;;;1.20;0.63;;;;;;;;;;5081918;28;20206;-64
2023/10/16 13:13:26;;;;;;;0.97;0.97;;;;;;;;;;5083408;28;20206;-63
2023/10/16 13:15:54;;;;;;;2.90;0.83;;;;;;;;;;5080622;28;20711;-67
2023/10/16 13:18:27;;;;;;;1.67;1.10;;;;;;;;;;5086785;28;20206;-63
2023/10/16 13:20:57;;;;;;;3.70;1.17;;;;;;;;;;5067641;28;20211;-66
2023/10/16 13:23:26;;;;;;;4.53;1.53;;;;;;;;;;5083691;28;20211;-63
2023/10/16 13:25:56;;;;;;;1.87;1.27;;;;;;;;;;5084679;28;20230;-64
2023/10/16 13:28:24;;;;;;;2.87;1.20;;;;;;;;;;5076084;28;20207;-66
2023/10/16 13:30:52;;;;;;;1.60;1.30;;;;;;;;;;5067144;28;20214;-65
2023/10/16 13:33:19;;;;;;;1.10;1.10;;;;;;;;;;5074430;28;20203;-65
2023/10/16 13:35:47;;;;;;;2.03;1.10;;;;;;;;;;5083468;28;20206;-65
2023/10/16 13:38:14;;;;;;;2.63;1.07;;;;;;;;;;5086892;28;20198;-65
2023/10/16 13:40:43;;;;;;;1.30;1.20;;;;;;;;;;5086339;28;20218;-64
2023/10/16 13:43:17;;;;;;;1.27;1.00;;;;;;;;;;5087297;28;20226;-63
2023/10/16 13:45:44;;;;;;;1.30;1.20;;;;;;;;;;5083256;28;20226;-64
2023/10/16 13:48:12;;;;;;;1.77;0.97;;;;;;;;;;5087299;28;20210;-65
2023/10/16 13:50:40;;;;;;;2.97;1.07;;;;;;;;;;5086819;28;20202;-64
2023/10/16 13:53:08;;;;;;;1.90;0.73;;;;;;;;;;5086868;28;20210;-65
2023/10/16 13:55:35;;;;;;;1.90;0.87;;;;;;;;;;5090744;28;20194;-65
2023/10/16 13:58:05;;;;;;;1.20;0.70;;;;;;;;;;5091252;28;20214;-64
2023/10/16 14:00:35;;;;;;;1.20;0.60;;;;;;;;;;5083061;28;20202;-64
2023/10/16 14:03:06;;;;;;;1.20;0.67;;;;;;;;;;5070804;28;20651;-65
2023/10/16 14:05:35;;;;;;;0.93;0.63;;;;;;;;;;5076522;28;20279;-65
2023/10/16 14:08:03;;;;;;;2.53;0.70;;;;;;;;;;5082390;28;20237;-65
2023/10/16 14:10:30;;;;;;;5.63;3.30;;;;;;;;;;5087442;28;20206;-66
2023/10/16 14:13:00;;;;;;;2.60;1.70;;;;;;;;;;5085922;28;20210;-65
2023/10/16 14:15:32;;;;;;;1.20;1.07;;;;;;;;;;5082609;28;20230;-65
2023/10/16 14:18:00;;;;;;;1.90;0.93;;;;;;;;;;5088043;28;20210;-65
2023/10/16 14:20:37;;;;;;;1.90;0.80;;;;;;;;;;5088050;28;20206;-66
2023/10/16 14:23:10;;;;;;;3.40;0.80;;;;;;;;;;5088396;28;20209;-64
2023/10/16 14:25:41;;;;;;;3.77;1.43;;;;;;;;;;5081875;28;20321;-65
2023/10/16 14:28:25;;;;;;;0.63;0.63;;;;;;;;;;5087132;28;20206;-65
2023/10/16 14:30:55;;;;;;;1.10;0.70;;;;;;;;;;5083870;28;20225;-65
2023/10/16 14:33:23;;;;;;;0.60;0.57;;;;;;;;;;5088334;28;20222;-65
2023/10/16 14:35:50;;;;;;;0.83;0.60;;;;;;;;;;5086818;28;20207;-65
2023/10/16 14:38:19;;;;;;;2.73;0.53;;;;;;;;;;5079727;28;20207;-66
2023/10/16 14:40:46;;;;;;;2.00;0.70;;;;;;;;;;5086816;28;20206;-65
2023/10/16 14:43:15;;;;;;;0.40;0.40;;;;;;;;;;5087932;28;20652;-66
2023/10/16 14:45:43;;;;;;;0.97;0.40;;;;;;;;;;5082993;28;20231;-65
2023/10/16 14:48:11;;;;;;;1.23;0.70;;;;;;;;;;5087792;28;20731;-65
2023/10/16 14:50:39;;;;;;;1.07;0.57;;;;;;;;;;5087396;28;20720;-65
2023/10/16 14:53:07;;;;;;;1.87;0.73;;;;;;;;;;5087306;28;20314;-65
2023/10/16 14:55:35;;;;;;;1.40;1.10;;;;;;;;;;5087248;28;20224;-65
2023/10/16 14:58:02;;;;;;;1.10;0.73;;;;;;;;;;5086302;28;20682;-66
2023/10/16 15:00:32;;;;;;;1.23;0.63;;;;;;;;;;5078530;28;20289;-65
2023/10/16 15:02:59;;;;;;;1.23;0.90;;;;;;;;;;5081970;28;20408;-65
2023/10/16 15:05:28;;;;;;;3.77;2.20;;;;;;;;;;5087677;28;20222;-66
2023/10/16 15:07:58;;;;;;;2.10;1.70;;;;;;;;;;5085747;28;20688;-66
2023/10/16 15:10:25;;;;;;;7.07;2.17;;;;;;;;;;5087764;28;20307;-66
2023/10/16 15:12:52;;;;;;;2.60;1.27;;;;;;;;;;5089233;28;20225;-66
2023/10/16 15:15:19;;;;;;;4.00;1.40;;;;;;;;;;5071374;28;20727;-66
2023/10/16 15:17:48;;;;;;;3.40;3.10;;;;;;;;;;5069655;28;20504;-66
2023/10/16 15:20:15;;;;;;;1.60;1.37;;;;;;;;;;5086020;28;20582;-66
2023/10/16 15:22:44;;;;;;;1.57;1.57;;;;;;;;;;5089103;28;20339;-66
2023/10/16 15:25:16;;;;;;;2.87;1.87;;;;;;;;;;5074656;28;20276;-65
2023/10/16 15:27:46;;;;;;;6.50;2.63;;;;;;;;;;5075781;28;20194;-66
2023/10/16 15:30:14;;;;;;;1.50;1.30;;;;;;;;;;5089214;28;20293;-65
2023/10/16 15:32:43;;;;;;;1.63;1.50;;;;;;;;;;5081928;28;20279;-67
2023/10/16 15:35:11;;;;;;;0.90;0.60;;;;;;;;;;5088438;28;20233;-67
2023/10/16 15:37:40;;;;;;;2.07;0.83;;;;;;;;;;5077374;28;20203;-66
2023/10/16 15:40:15;;;;;;;2.93;0.70;;;;;;;;;;5085382;28;20306;-65
2023/10/16 15:42:42;;;;;;;0.60;0.60;;;;;;;;;;5088167;28;20578;-66
2023/10/16 15:45:10;;;;;;;0.50;0.50;;;;;;;;;;5088642;28;20226;-68
2023/10/16 15:47:37;;;;;;;1.60;0.73;;;;;;;;;;5073362;28;20205;-68
2023/10/16 15:50:05;;;;;;;0.73;0.73;;;;;;;;;;5087737;28;20289;-81
2023/10/16 15:52:32;;;;;;;1.63;0.60;;;;;;;;;;5087514;28;20209;-75
2023/10/16 15:54:59;;;;;;;1.70;0.90;;;;;;;;;;5087865;28;20210;-67
2023/10/16 15:57:30;;;;;;;1.37;0.50;;;;;;;;;;5086157;28;20194;-66
2023/10/16 15:59:57;;;;;;;2.90;0.90;;;;;;;;;;5082872;28;20847;-66
2023/10/16 16:02:24;;;;;;;1.10;0.43;;;;;;;;;;5074847;28;20211;-65
2023/10/16 16:04:54;;;;;;;1.20;0.50;;;;;;;;;;5068623;28;20593;-67
2023/10/16 16:07:21;;;;;;;1.10;0.50;;;;;;;;;;5087269;28;20638;-67
2023/10/16 16:09:48;;;;;;;0.97;0.60;;;;;;;;;;5087903;28;20206;-64
2023/10/16 16:12:16;;;;;;;2.63;0.47;;;;;;;;;;5082637;28;20195;-68
2023/10/16 16:14:44;;;;;;;1.87;0.70;;;;;;;;;;5074920;28;20206;-66
2023/10/16 16:17:12;;;;;;;1.37;0.43;;;;;;;;;;5081745;28;20238;-69
2023/10/16 16:19:39;;;;;;;1.00;1.00;;;;;;;;;;5086617;28;20214;-69
2023/10/16 16:22:10;;;;;;;1.80;0.87;;;;;;;;;;5080608;28;20423;-71
2023/10/16 16:24:37;;;;;;;1.00;0.80;;;;;;;;;;5083037;28;20749;-67
2023/10/16 16:27:07;;;;;;;0.70;0.70;;;;;;;;;;5075713;28;20211;-70
2023/10/16 16:29:34;;;;;;;0.80;0.60;;;;;;;;;;5084238;28;20682;-67
2023/10/16 16:32:03;;;;;;;0.50;0.50;;;;;;;;;;5074996;28;20215;-68
2023/10/16 16:34:31;;;;;;;0.70;0.70;;;;;;;;;;5075897;28;20885;-71